首页
METAR-TAF:

METAR-TAF

机场 :

匹兹堡国际机场

匹兹堡, 宾夕法尼亚州, 美国

纬度: 40-30-14N, 经度: 080-15-59W, 海拔: 366米

当前天气观测

该预报发布于1小时和6分钟前的14:51 UTC
风速4节,风向东转东南
温度 1°C
湿度 55%
气压 1022 hPa
能見度: 16.1公里
多云层高于4000英尺
阴天层高于6000英尺

METAR: KPIT 131451Z 12004KT 10SM BKN040 OVC060 01/M07 A3017 RMK AO2 SLP234 VIRGA T00111067 56006

时间: 10:57 (15:57 UTC)

预报

该预报发布于1小时和9分钟前的14:48 UTC
预报有效从13日的 15点(UTC)到 14日的 18点(UTC)
风速5节,风向东转东南
能見度: 10公里
阴天层高于5000英尺
从 13日的 1900点(UTC)
风速4节,风向
能見度: 10公里
阴天层高于2500英尺
从 13日的 2300点(UTC)
风速3节,风向东转东北
能見度: 10公里
阴天层高于1500英尺
附近有阵雨
从 14日的 0400点(UTC)
风速4节,风向
能見度: 3.2公里
阴天层高于800英尺
小雨, 轻雾

TAF: KPIT 131448Z 1315/1418 12005KT P6SM OVC050 FM131900 10004KT P6SM OVC025 FM132300 07003KT P6SM VCSH OVC015 FM140400 08004KT 2SM -RA BR OVC008

超过4000个机场的气象观测和天气预报(METAR&TAF报告)。

可查询的气象台以黄色和红色小点在地图上表示。

将鼠标移到小点上方,可查看气象台名称。

然后点击查看天气观测和预报。

如需切换地图:点击带黑十字的绿色按钮放大地图;点击带横线的绿色按钮缩小地图;或者点击绿色箭头查看邻近地区的地图。


METAR-TAF: